sensor_id;sensor_type;location;lat;lon;timestamp;P1;durP1;ratioP1;P2;durP2;ratioP2
56680;SDS011;42558;52.388;13.390;2023-08-30T00:00:53;11.59;;;7.22;;
56680;SDS011;42558;52.388;13.390;2023-08-30T00:03:23;9.31;;;6.27;;
56680;SDS011;42558;52.388;13.390;2023-08-30T00:05:53;14.25;;;6.08;;
56680;SDS011;42558;52.388;13.390;2023-08-30T00:08:23;10.07;;;5.51;;
56680;SDS011;42558;52.388;13.390;2023-08-30T00:10:53;9.31;;;6.27;;
56680;SDS011;42558;52.388;13.390;2023-08-30T00:13:23;11.97;;;6.08;;
56680;SDS011;42558;52.388;13.390;2023-08-30T00:15:53;10.26;;;6.46;;
56680;SDS011;42558;52.388;13.390;2023-08-30T00:18:23;11.78;;;6.65;;
56680;SDS011;42558;52.388;13.390;2023-08-30T00:20:53;12.73;;;6.08;;
56680;SDS011;42558;52.388;13.390;2023-08-30T00:23:23;9.69;;;5.32;;
56680;SDS011;42558;52.388;13.390;2023-08-30T00:25:53;8.74;;;5.51;;
56680;SDS011;42558;52.388;13.390;2023-08-30T00:28:23;9.88;;;5.70;;
56680;SDS011;42558;52.388;13.390;2023-08-30T00:30:54;9.69;;;5.70;;
56680;SDS011;42558;52.388;13.390;2023-08-30T00:33:24;11.40;;;6.27;;
56680;SDS011;42558;52.388;13.390;2023-08-30T00:35:58;11.40;;;5.70;;
56680;SDS011;42558;52.388;13.390;2023-08-30T00:38:28;12.54;;;6.27;;
56680;SDS011;42558;52.388;13.390;2023-08-30T00:40:56;9.88;;;5.89;;
56680;SDS011;42558;52.388;13.390;2023-08-30T00:43:26;8.74;;;5.70;;
56680;SDS011;42558;52.388;13.390;2023-08-30T00:45:56;12.54;;;5.70;;
56680;SDS011;42558;52.388;13.390;2023-08-30T00:48:27;10.07;;;4.75;;
56680;SDS011;42558;52.388;13.390;2023-08-30T00:50:56;13.68;;;5.13;;
56680;SDS011;42558;52.388;13.390;2023-08-30T00:53:26;10.64;;;5.13;;
56680;SDS011;42558;52.388;13.390;2023-08-30T00:55:56;10.07;;;5.51;;
56680;SDS011;42558;52.388;13.390;2023-08-30T00:58:26;9.88;;;5.13;;
56680;SDS011;42558;52.388;13.390;2023-08-30T01:00:55;11.78;;;5.51;;
56680;SDS011;42558;52.388;13.390;2023-08-30T01:03:23;11.59;;;5.51;;
56680;SDS011;42558;52.388;13.390;2023-08-30T01:05:51;9.88;;;5.32;;
56680;SDS011;42558;52.388;13.390;2023-08-30T01:08:20;10.07;;;5.51;;
56680;SDS011;42558;52.388;13.390;2023-08-30T01:11:18;9.31;;;5.51;;
56680;SDS011;42558;52.388;13.390;2023-08-30T01:14:04;12.92;;;5.32;;
56680;SDS011;42558;52.388;13.390;2023-08-30T01:16:35;9.69;;;4.94;;
56680;SDS011;42558;52.388;13.390;2023-08-30T01:22:51;11.21;;;5.13;;
56680;SDS011;42558;52.388;13.390;2023-08-30T01:28:56;11.02;;;4.56;;
56680;SDS011;42558;52.388;13.390;2023-08-30T01:31:31;10.83;;;5.32;;
56680;SDS011;42558;52.388;13.390;2023-08-30T01:34:03;12.92;;;5.51;;
56680;SDS011;42558;52.388;13.390;2023-08-30T01:36:34;12.35;;;5.32;;
56680;SDS011;42558;52.388;13.390;2023-08-30T01:39:06;9.31;;;4.94;;
56680;SDS011;42558;52.388;13.390;2023-08-30T01:41:37;10.07;;;5.32;;
56680;SDS011;42558;52.388;13.390;2023-08-30T01:44:08;8.93;;;4.56;;
56680;SDS011;42558;52.388;13.390;2023-08-30T01:46:40;9.31;;;5.13;;
56680;SDS011;42558;52.388;13.390;2023-08-30T01:49:10;10.07;;;4.75;;
56680;SDS011;42558;52.388;13.390;2023-08-30T01:51:41;9.50;;;5.32;;
56680;SDS011;42558;52.388;13.390;2023-08-30T01:54:13;9.88;;;5.32;;
56680;SDS011;42558;52.388;13.390;2023-08-30T01:56:46;11.02;;;5.89;;
56680;SDS011;42558;52.388;13.390;2023-08-30T01:59:16;10.07;;;4.37;;
56680;SDS011;42558;52.388;13.390;2023-08-30T02:01:46;11.97;;;5.51;;
56680;SDS011;42558;52.388;13.390;2023-08-30T02:04:16;9.12;;;5.13;;
56680;SDS011;42558;52.388;13.390;2023-08-30T02:09:51;11.21;;;5.89;;
56680;SDS011;42558;52.388;13.390;2023-08-30T02:12:31;14.82;;;6.08;;
56680;SDS011;42558;52.388;13.390;2023-08-30T02:15:11;11.02;;;5.70;;
56680;SDS011;42558;52.388;13.390;2023-08-30T02:17:43;11.21;;;5.89;;
56680;SDS011;42558;52.388;13.390;2023-08-30T02:20:14;10.26;;;5.51;;
56680;SDS011;42558;52.388;13.390;2023-08-30T02:22:45;12.16;;;5.89;;
56680;SDS011;42558;52.388;13.390;2023-08-30T02:25:16;13.49;;;6.65;;
56680;SDS011;42558;52.388;13.390;2023-08-30T02:27:46;9.12;;;5.89;;
56680;SDS011;42558;52.388;13.390;2023-08-30T02:30:14;10.64;;;6.46;;
56680;SDS011;42558;52.388;13.390;2023-08-30T02:32:42;11.21;;;5.70;;
56680;SDS011;42558;52.388;13.390;2023-08-30T02:35:11;10.64;;;6.08;;
56680;SDS011;42558;52.388;13.390;2023-08-30T02:37:39;8.93;;;5.32;;
56680;SDS011;42558;52.388;13.390;2023-08-30T02:40:12;11.78;;;5.70;;
56680;SDS011;42558;52.388;13.390;2023-08-30T02:42:39;10.83;;;5.89;;
56680;SDS011;42558;52.388;13.390;2023-08-30T02:45:08;11.02;;;5.51;;
56680;SDS011;42558;52.388;13.390;2023-08-30T02:47:36;8.55;;;5.51;;
56680;SDS011;42558;52.388;13.390;2023-08-30T02:50:05;10.83;;;5.89;;
56680;SDS011;42558;52.388;13.390;2023-08-30T02:52:33;9.12;;;5.32;;
56680;SDS011;42558;52.388;13.390;2023-08-30T02:55:01;13.68;;;6.84;;
56680;SDS011;42558;52.388;13.390;2023-08-30T02:57:30;11.21;;;5.89;;
56680;SDS011;42558;52.388;13.390;2023-08-30T02:59:58;11.78;;;5.70;;
56680;SDS011;42558;52.388;13.390;2023-08-30T03:02:27;12.16;;;5.51;;
56680;SDS011;42558;52.388;13.390;2023-08-30T03:04:58;11.02;;;6.08;;
56680;SDS011;42558;52.388;13.390;2023-08-30T03:07:29;10.83;;;6.27;;
56680;SDS011;42558;52.388;13.390;2023-08-30T03:09:58;12.54;;;6.27;;
56680;SDS011;42558;52.388;13.390;2023-08-30T03:12:29;12.35;;;6.46;;
56680;SDS011;42558;52.388;13.390;2023-08-30T03:14:58;11.40;;;5.70;;
56680;SDS011;42558;52.388;13.390;2023-08-30T03:17:28;10.64;;;6.08;;
56680;SDS011;42558;52.388;13.390;2023-08-30T03:20:00;8.17;;;5.13;;
56680;SDS011;42558;52.388;13.390;2023-08-30T03:22:29;11.78;;;6.65;;
56680;SDS011;42558;52.388;13.390;2023-08-30T03:25:00;11.21;;;6.65;;
56680;SDS011;42558;52.388;13.390;2023-08-30T03:27:33;10.26;;;5.89;;
56680;SDS011;42558;52.388;13.390;2023-08-30T03:30:03;11.97;;;6.27;;
56680;SDS011;42558;52.388;13.390;2023-08-30T03:32:31;11.02;;;6.46;;
56680;SDS011;42558;52.388;13.390;2023-08-30T03:35:02;9.50;;;6.27;;
56680;SDS011;42558;52.388;13.390;2023-08-30T03:37:33;12.92;;;6.46;;
56680;SDS011;42558;52.388;13.390;2023-08-30T03:40:03;9.31;;;6.46;;
56680;SDS011;42558;52.388;13.390;2023-08-30T03:42:37;9.12;;;5.51;;
56680;SDS011;42558;52.388;13.390;2023-08-30T03:45:07;13.68;;;6.65;;
56680;SDS011;42558;52.388;13.390;2023-08-30T03:47:38;10.45;;;6.27;;
56680;SDS011;42558;52.388;13.390;2023-08-30T03:50:08;13.11;;;6.84;;
56680;SDS011;42558;52.388;13.390;2023-08-30T03:52:38;10.45;;;6.46;;
56680;SDS011;42558;52.388;13.390;2023-08-30T03:55:08;13.87;;;6.46;;
56680;SDS011;42558;52.388;13.390;2023-08-30T03:57:38;10.26;;;6.46;;
56680;SDS011;42558;52.388;13.390;2023-08-30T04:00:09;10.64;;;7.41;;
56680;SDS011;42558;52.388;13.390;2023-08-30T04:02:41;11.97;;;6.84;;
56680;SDS011;42558;52.388;13.390;2023-08-30T04:05:11;10.64;;;6.08;;
56680;SDS011;42558;52.388;13.390;2023-08-30T04:07:41;12.16;;;7.98;;
56680;SDS011;42558;52.388;13.390;2023-08-30T04:10:11;16.15;;;7.41;;
56680;SDS011;42558;52.388;13.390;2023-08-30T04:12:41;11.21;;;6.84;;
56680;SDS011;42558;52.388;13.390;2023-08-30T04:15:11;11.78;;;7.41;;
56680;SDS011;42558;52.388;13.390;2023-08-30T04:17:42;11.02;;;7.03;;
56680;SDS011;42558;52.388;13.390;2023-08-30T04:20:12;10.83;;;6.27;;
56680;SDS011;42558;52.388;13.390;2023-08-30T04:22:42;10.45;;;6.27;;
56680;SDS011;42558;52.388;13.390;2023-08-30T04:25:12;9.69;;;6.65;;
56680;SDS011;42558;52.388;13.390;2023-08-30T04:27:42;12.35;;;6.46;;
56680;SDS011;42558;52.388;13.390;2023-08-30T04:30:12;10.64;;;6.84;;
56680;SDS011;42558;52.388;13.390;2023-08-30T04:32:43;11.21;;;7.60;;
56680;SDS011;42558;52.388;13.390;2023-08-30T04:35:13;13.87;;;7.60;;
56680;SDS011;42558;52.388;13.390;2023-08-30T04:37:43;11.78;;;7.60;;
56680;SDS011;42558;52.388;13.390;2023-08-30T04:40:13;11.78;;;7.60;;
56680;SDS011;42558;52.388;13.390;2023-08-30T04:42:43;12.73;;;7.22;;
56680;SDS011;42558;52.388;13.390;2023-08-30T04:45:12;10.26;;;7.41;;
56680;SDS011;42558;52.388;13.390;2023-08-30T04:47:42;12.92;;;6.84;;
56680;SDS011;42558;52.388;13.390;2023-08-30T04:50:15;11.40;;;7.79;;
56680;SDS011;42558;52.388;13.390;2023-08-30T04:52:46;10.83;;;7.79;;
56680;SDS011;42558;52.388;13.390;2023-08-30T04:55:16;11.40;;;7.79;;
56680;SDS011;42558;52.388;13.390;2023-08-30T04:57:46;12.73;;;7.98;;
56680;SDS011;42558;52.388;13.390;2023-08-30T05:00:18;15.77;;;7.98;;
56680;SDS011;42558;52.388;13.390;2023-08-30T05:02:48;17.86;;;7.98;;
56680;SDS011;42558;52.388;13.390;2023-08-30T05:05:18;13.68;;;7.79;;
56680;SDS011;42558;52.388;13.390;2023-08-30T05:07:48;10.45;;;7.22;;
56680;SDS011;42558;52.388;13.390;2023-08-30T05:10:18;11.78;;;7.41;;
56680;SDS011;42558;52.388;13.390;2023-08-30T05:12:48;11.40;;;7.60;;
56680;SDS011;42558;52.388;13.390;2023-08-30T05:15:21;12.16;;;7.60;;
56680;SDS011;42558;52.388;13.390;2023-08-30T05:17:51;12.35;;;7.98;;
56680;SDS011;42558;52.388;13.390;2023-08-30T05:20:21;11.02;;;7.79;;
56680;SDS011;42558;52.388;13.390;2023-08-30T05:22:51;11.59;;;7.79;;
56680;SDS011;42558;52.388;13.390;2023-08-30T05:25:21;13.87;;;8.17;;
56680;SDS011;42558;52.388;13.390;2023-08-30T05:27:50;10.45;;;7.98;;
56680;SDS011;42558;52.388;13.390;2023-08-30T05:30:20;10.64;;;7.60;;
56680;SDS011;42558;52.388;13.390;2023-08-30T05:32:50;10.83;;;7.22;;
56680;SDS011;42558;52.388;13.390;2023-08-30T05:35:20;13.30;;;8.17;;
56680;SDS011;42558;52.388;13.390;2023-08-30T05:37:48;10.07;;;7.79;;
56680;SDS011;42558;52.388;13.390;2023-08-30T05:40:17;15.96;;;8.36;;
56680;SDS011;42558;52.388;13.390;2023-08-30T05:42:45;12.73;;;8.17;;
56680;SDS011;42558;52.388;13.390;2023-08-30T05:45:14;11.78;;;8.55;;
56680;SDS011;42558;52.388;13.390;2023-08-30T05:47:42;15.20;;;9.31;;
56680;SDS011;42558;52.388;13.390;2023-08-30T05:50:11;11.78;;;8.93;;
56680;SDS011;42558;52.388;13.390;2023-08-30T05:52:39;13.49;;;9.12;;
56680;SDS011;42558;52.388;13.390;2023-08-30T05:55:14;14.82;;;9.50;;
56680;SDS011;42558;52.388;13.390;2023-08-30T05:57:44;12.54;;;9.31;;
56680;SDS011;42558;52.388;13.390;2023-08-30T06:00:14;12.16;;;8.93;;
56680;SDS011;42558;52.388;13.390;2023-08-30T06:02:44;11.40;;;8.55;;
56680;SDS011;42558;52.388;13.390;2023-08-30T06:05:14;16.53;;;9.31;;
56680;SDS011;42558;52.388;13.390;2023-08-30T06:07:44;13.11;;;8.74;;
56680;SDS011;42558;52.388;13.390;2023-08-30T06:10:14;12.54;;;9.31;;
56680;SDS011;42558;52.388;13.390;2023-08-30T06:12:44;18.05;;;10.26;;
56680;SDS011;42558;52.388;13.390;2023-08-30T06:15:14;14.63;;;9.50;;
56680;SDS011;42558;52.388;13.390;2023-08-30T06:17:44;15.01;;;9.69;;
56680;SDS011;42558;52.388;13.390;2023-08-30T06:20:16;15.39;;;9.88;;
56680;SDS011;42558;52.388;13.390;2023-08-30T06:22:44;15.96;;;8.74;;
56680;SDS011;42558;52.388;13.390;2023-08-30T06:25:13;13.30;;;10.07;;
56680;SDS011;42558;52.388;13.390;2023-08-30T06:27:42;12.54;;;9.88;;
56680;SDS011;42558;52.388;13.390;2023-08-30T06:30:22;12.54;;;8.17;;
56680;SDS011;42558;52.388;13.390;2023-08-30T06:32:51;12.92;;;8.17;;
56680;SDS011;42558;52.388;13.390;2023-08-30T06:35:19;14.82;;;8.36;;
56680;SDS011;42558;52.388;13.390;2023-08-30T06:37:47;11.21;;;8.55;;
56680;SDS011;42558;52.388;13.390;2023-08-30T06:40:16;12.92;;;8.36;;
56680;SDS011;42558;52.388;13.390;2023-08-30T06:42:44;12.92;;;9.12;;
56680;SDS011;42558;52.388;13.390;2023-08-30T06:45:13;14.25;;;9.69;;
56680;SDS011;42558;52.388;13.390;2023-08-30T06:47:41;15.58;;;8.74;;
56680;SDS011;42558;52.388;13.390;2023-08-30T06:50:09;12.54;;;8.74;;
56680;SDS011;42558;52.388;13.390;2023-08-30T06:52:38;11.78;;;9.31;;
56680;SDS011;42558;52.388;13.390;2023-08-30T06:55:07;12.16;;;9.12;;
56680;SDS011;42558;52.388;13.390;2023-08-30T06:57:35;13.68;;;9.69;;
56680;SDS011;42558;52.388;13.390;2023-08-30T07:00:04;14.06;;;10.07;;
56680;SDS011;42558;52.388;13.390;2023-08-30T07:02:38;13.68;;;9.50;;
56680;SDS011;42558;52.388;13.390;2023-08-30T07:05:06;15.58;;;8.93;;
56680;SDS011;42558;52.388;13.390;2023-08-30T07:07:37;11.59;;;8.55;;
56680;SDS011;42558;52.388;13.390;2023-08-30T07:10:07;11.78;;;8.36;;
56680;SDS011;42558;52.388;13.390;2023-08-30T07:12:37;12.92;;;7.79;;
56680;SDS011;42558;52.388;13.390;2023-08-30T07:15:08;11.40;;;7.60;;
56680;SDS011;42558;52.388;13.390;2023-08-30T07:17:37;11.21;;;7.41;;
56680;SDS011;42558;52.388;13.390;2023-08-30T07:20:11;11.21;;;8.36;;
56680;SDS011;42558;52.388;13.390;2023-08-30T07:22:44;10.83;;;7.03;;
56680;SDS011;42558;52.388;13.390;2023-08-30T07:25:11;11.21;;;6.65;;
56680;SDS011;42558;52.388;13.390;2023-08-30T07:27:42;11.59;;;6.27;;
56680;SDS011;42558;52.388;13.390;2023-08-30T07:30:12;9.69;;;6.27;;
56680;SDS011;42558;52.388;13.390;2023-08-30T07:32:43;12.92;;;6.46;;
56680;SDS011;42558;52.388;13.390;2023-08-30T07:35:12;10.64;;;6.27;;
56680;SDS011;42558;52.388;13.390;2023-08-30T07:37:43;9.50;;;5.51;;
56680;SDS011;42558;52.388;13.390;2023-08-30T07:40:13;10.07;;;5.89;;
56680;SDS011;42558;52.388;13.390;2023-08-30T07:42:43;8.74;;;5.89;;
56680;SDS011;42558;52.388;13.390;2023-08-30T07:45:13;9.50;;;5.70;;
56680;SDS011;42558;52.388;13.390;2023-08-30T07:47:43;10.26;;;5.51;;
56680;SDS011;42558;52.388;13.390;2023-08-30T07:50:12;12.16;;;5.70;;
56680;SDS011;42558;52.388;13.390;2023-08-30T07:52:42;9.69;;;5.13;;
56680;SDS011;42558;52.388;13.390;2023-08-30T07:55:14;8.93;;;5.32;;
56680;SDS011;42558;52.388;13.390;2023-08-30T07:57:44;9.50;;;4.75;;
56680;SDS011;42558;52.388;13.390;2023-08-30T08:00:14;11.59;;;4.75;;
56680;SDS011;42558;52.388;13.390;2023-08-30T08:02:43;8.36;;;3.99;;
56680;SDS011;42558;52.388;13.390;2023-08-30T08:05:13;7.60;;;4.56;;
56680;SDS011;42558;52.388;13.390;2023-08-30T08:07:44;7.79;;;4.18;;
56680;SDS011;42558;52.388;13.390;2023-08-30T08:10:13;6.65;;;3.80;;
56680;SDS011;42558;52.388;13.390;2023-08-30T08:12:43;10.45;;;4.56;;
56680;SDS011;42558;52.388;13.390;2023-08-30T08:15:13;9.12;;;4.18;;
56680;SDS011;42558;52.388;13.390;2023-08-30T08:17:43;7.79;;;4.56;;
56680;SDS011;42558;52.388;13.390;2023-08-30T08:20:13;8.74;;;3.99;;
56680;SDS011;42558;52.388;13.390;2023-08-30T08:22:43;7.60;;;3.80;;
56680;SDS011;42558;52.388;13.390;2023-08-30T08:25:14;6.84;;;3.23;;
56680;SDS011;42558;52.388;13.390;2023-08-30T08:27:44;8.17;;;3.42;;
56680;SDS011;42558;52.388;13.390;2023-08-30T08:30:14;8.74;;;3.80;;
56680;SDS011;42558;52.388;13.390;2023-08-30T08:32:45;8.74;;;3.61;;
56680;SDS011;42558;52.388;13.390;2023-08-30T08:35:17;7.98;;;3.23;;
56680;SDS011;42558;52.388;13.390;2023-08-30T08:37:47;8.74;;;4.18;;
56680;SDS011;42558;52.388;13.390;2023-08-30T08:40:17;7.22;;;4.37;;
56680;SDS011;42558;52.388;13.390;2023-08-30T08:43:01;8.36;;;4.18;;
56680;SDS011;42558;52.388;13.390;2023-08-30T08:45:35;9.88;;;4.94;;
56680;SDS011;42558;52.388;13.390;2023-08-30T08:48:06;8.17;;;3.99;;
56680;SDS011;42558;52.388;13.390;2023-08-30T08:50:37;7.60;;;3.99;;
56680;SDS011;42558;52.388;13.390;2023-08-30T08:53:08;7.60;;;3.99;;
56680;SDS011;42558;52.388;13.390;2023-08-30T08:55:37;9.69;;;4.18;;
56680;SDS011;42558;52.388;13.390;2023-08-30T08:58:05;8.36;;;3.61;;
56680;SDS011;42558;52.388;13.390;2023-08-30T09:00:34;9.88;;;4.94;;
56680;SDS011;42558;52.388;13.390;2023-08-30T09:03:02;10.64;;;3.99;;
56680;SDS011;42558;52.388;13.390;2023-08-30T09:05:37;6.46;;;3.42;;
56680;SDS011;42558;52.388;13.390;2023-08-30T09:08:10;7.60;;;3.99;;
56680;SDS011;42558;52.388;13.390;2023-08-30T09:10:42;9.31;;;3.61;;
56680;SDS011;42558;52.388;13.390;2023-08-30T09:13:12;7.79;;;3.23;;
56680;SDS011;42558;52.388;13.390;2023-08-30T09:15:42;6.84;;;3.23;;
56680;SDS011;42558;52.388;13.390;2023-08-30T09:18:19;6.65;;;3.23;;
56680;SDS011;42558;52.388;13.390;2023-08-30T09:20:49;6.84;;;3.23;;
56680;SDS011;42558;52.388;13.390;2023-08-30T09:23:21;7.98;;;3.23;;
56680;SDS011;42558;52.388;13.390;2023-08-30T09:25:54;8.17;;;3.99;;
56680;SDS011;42558;52.388;13.390;2023-08-30T09:28:25;8.36;;;3.99;;
56680;SDS011;42558;52.388;13.390;2023-08-30T09:30:57;9.88;;;3.80;;
56680;SDS011;42558;52.388;13.390;2023-08-30T09:33:49;8.55;;;4.18;;
56680;SDS011;42558;52.388;13.390;2023-08-30T09:36:19;7.98;;;4.37;;
56680;SDS011;42558;52.388;13.390;2023-08-30T09:38:49;8.36;;;3.61;;
56680;SDS011;42558;52.388;13.390;2023-08-30T09:41:19;9.69;;;4.18;;
56680;SDS011;42558;52.388;13.390;2023-08-30T09:43:49;8.93;;;4.56;;
56680;SDS011;42558;52.388;13.390;2023-08-30T09:46:29;7.79;;;4.56;;
56680;SDS011;42558;52.388;13.390;2023-08-30T09:49:21;7.98;;;4.56;;
56680;SDS011;42558;52.388;13.390;2023-08-30T09:51:56;8.93;;;4.37;;
56680;SDS011;42558;52.388;13.390;2023-08-30T09:54:31;8.17;;;5.13;;
56680;SDS011;42558;52.388;13.390;2023-08-30T09:57:09;9.50;;;4.56;;
56680;SDS011;42558;52.388;13.390;2023-08-30T09:59:40;7.98;;;3.99;;
56680;SDS011;42558;52.388;13.390;2023-08-30T10:02:12;8.74;;;3.61;;
56680;SDS011;42558;52.388;13.390;2023-08-30T10:04:42;7.98;;;3.42;;
56680;SDS011;42558;52.388;13.390;2023-08-30T10:07:15;7.79;;;3.61;;
56680;SDS011;42558;52.388;13.390;2023-08-30T10:09:46;6.65;;;3.61;;
56680;SDS011;42558;52.388;13.390;2023-08-30T10:12:39;7.41;;;3.61;;
56680;SDS011;42558;52.388;13.390;2023-08-30T10:15:23;8.17;;;3.61;;
56680;SDS011;42558;52.388;13.390;2023-08-30T10:17:58;7.03;;;3.99;;
56680;SDS011;42558;52.388;13.390;2023-08-30T10:20:28;7.79;;;3.61;;
56680;SDS011;42558;52.388;13.390;2023-08-30T10:23:01;8.17;;;3.23;;
56680;SDS011;42558;52.388;13.390;2023-08-30T10:25:33;7.98;;;2.85;;
56680;SDS011;42558;52.388;13.390;2023-08-30T10:28:04;7.22;;;2.28;;
56680;SDS011;42558;52.388;13.390;2023-08-30T10:30:35;8.93;;;2.66;;
56680;SDS011;42558;52.388;13.390;2023-08-30T10:33:14;7.22;;;2.28;;
56680;SDS011;42558;52.388;13.390;2023-08-30T10:35:48;7.41;;;3.04;;
56680;SDS011;42558;52.388;13.390;2023-08-30T10:38:25;7.03;;;3.42;;
56680;SDS011;42558;52.388;13.390;2023-08-30T10:41:08;7.98;;;3.61;;
56680;SDS011;42558;52.388;13.390;2023-08-30T10:43:38;6.84;;;3.23;;
56680;SDS011;42558;52.388;13.390;2023-08-30T10:46:08;8.74;;;3.80;;
56680;SDS011;42558;52.388;13.390;2023-08-30T10:48:41;8.17;;;3.23;;
56680;SDS011;42558;52.388;13.390;2023-08-30T10:51:37;7.03;;;2.85;;
56680;SDS011;42558;52.388;13.390;2023-08-30T10:54:11;7.41;;;2.85;;
56680;SDS011;42558;52.388;13.390;2023-08-30T10:56:55;8.93;;;3.04;;
56680;SDS011;42558;52.388;13.390;2023-08-30T10:59:30;6.84;;;3.04;;
56680;SDS011;42558;52.388;13.390;2023-08-30T11:02:01;7.98;;;3.23;;
56680;SDS011;42558;52.388;13.390;2023-08-30T11:04:33;6.84;;;3.61;;
56680;SDS011;42558;52.388;13.390;2023-08-30T11:07:08;7.22;;;3.42;;
56680;SDS011;42558;52.388;13.390;2023-08-30T11:09:37;6.46;;;3.04;;
56680;SDS011;42558;52.388;13.390;2023-08-30T11:12:09;9.69;;;3.04;;
56680;SDS011;42558;52.388;13.390;2023-08-30T11:14:40;6.84;;;3.23;;
56680;SDS011;42558;52.388;13.390;2023-08-30T11:17:10;7.98;;;3.04;;
56680;SDS011;42558;52.388;13.390;2023-08-30T11:19:39;7.79;;;3.04;;
56680;SDS011;42558;52.388;13.390;2023-08-30T11:22:08;6.84;;;3.04;;
56680;SDS011;42558;52.388;13.390;2023-08-30T11:24:36;7.98;;;3.42;;
56680;SDS011;42558;52.388;13.390;2023-08-30T11:27:05;5.70;;;2.66;;
56680;SDS011;42558;52.388;13.390;2023-08-30T11:29:39;9.31;;;3.80;;
56680;SDS011;42558;52.388;13.390;2023-08-30T11:32:10;7.98;;;2.66;;
56680;SDS011;42558;52.388;13.390;2023-08-30T11:34:39;9.88;;;3.04;;
56680;SDS011;42558;52.388;13.390;2023-08-30T11:37:09;7.03;;;3.23;;
56680;SDS011;42558;52.388;13.390;2023-08-30T11:39:39;6.08;;;3.04;;
56680;SDS011;42558;52.388;13.390;2023-08-30T11:42:10;7.03;;;2.85;;
56680;SDS011;42558;52.388;13.390;2023-08-30T11:44:48;6.65;;;3.61;;
56680;SDS011;42558;52.388;13.390;2023-08-30T11:49:52;6.84;;;3.42;;
56680;SDS011;42558;52.388;13.390;2023-08-30T11:52:24;8.36;;;3.61;;
56680;SDS011;42558;52.388;13.390;2023-08-30T11:54:55;5.89;;;3.04;;
56680;SDS011;42558;52.388;13.390;2023-08-30T11:57:25;6.84;;;3.80;;
56680;SDS011;42558;52.388;13.390;2023-08-30T12:00:09;6.46;;;2.66;;
56680;SDS011;42558;52.388;13.390;2023-08-30T12:02:41;6.08;;;3.42;;
56680;SDS011;42558;52.388;13.390;2023-08-30T12:05:12;6.84;;;3.61;;
56680;SDS011;42558;52.388;13.390;2023-08-30T12:07:45;6.08;;;3.23;;
56680;SDS011;42558;52.388;13.390;2023-08-30T12:10:18;6.46;;;3.04;;
56680;SDS011;42558;52.388;13.390;2023-08-30T12:12:49;6.84;;;3.80;;
56680;SDS011;42558;52.388;13.390;2023-08-30T12:15:18;6.27;;;3.61;;
56680;SDS011;42558;52.388;13.390;2023-08-30T12:17:46;7.22;;;3.80;;
56680;SDS011;42558;52.388;13.390;2023-08-30T12:20:17;9.31;;;3.80;;
56680;SDS011;42558;52.388;13.390;2023-08-30T12:22:50;6.84;;;3.04;;
56680;SDS011;42558;52.388;13.390;2023-08-30T12:25:22;8.93;;;3.61;;
56680;SDS011;42558;52.388;13.390;2023-08-30T12:27:56;8.17;;;3.80;;
56680;SDS011;42558;52.388;13.390;2023-08-30T12:30:23;9.31;;;3.23;;
56680;SDS011;42558;52.388;13.390;2023-08-30T12:33:00;7.41;;;3.23;;
56680;SDS011;42558;52.388;13.390;2023-08-30T12:35:33;7.79;;;3.61;;
56680;SDS011;42558;52.388;13.390;2023-08-30T12:38:02;8.36;;;4.18;;
56680;SDS011;42558;52.388;13.390;2023-08-30T12:40:30;8.36;;;3.23;;
56680;SDS011;42558;52.388;13.390;2023-08-30T12:42:59;7.03;;;3.42;;
56680;SDS011;42558;52.388;13.390;2023-08-30T12:45:27;7.22;;;3.42;;
56680;SDS011;42558;52.388;13.390;2023-08-30T12:47:56;5.70;;;3.04;;
56680;SDS011;42558;52.388;13.390;2023-08-30T12:50:27;6.84;;;3.42;;
56680;SDS011;42558;52.388;13.390;2023-08-30T12:52:56;8.55;;;2.85;;
56680;SDS011;42558;52.388;13.390;2023-08-30T12:55:24;6.84;;;3.42;;
56680;SDS011;42558;52.388;13.390;2023-08-30T12:57:52;6.65;;;3.04;;
56680;SDS011;42558;52.388;13.390;2023-08-30T13:00:21;9.50;;;3.61;;
56680;SDS011;42558;52.388;13.390;2023-08-30T13:02:49;8.93;;;3.61;;
56680;SDS011;42558;52.388;13.390;2023-08-30T13:05:18;7.60;;;3.61;;
56680;SDS011;42558;52.388;13.390;2023-08-30T13:07:46;7.79;;;3.80;;
56680;SDS011;42558;52.388;13.390;2023-08-30T13:10:15;8.55;;;3.42;;
56680;SDS011;42558;52.388;13.390;2023-08-30T13:12:46;7.79;;;3.42;;
56680;SDS011;42558;52.388;13.390;2023-08-30T13:15:16;7.03;;;3.80;;
56680;SDS011;42558;52.388;13.390;2023-08-30T13:17:46;6.08;;;3.42;;
56680;SDS011;42558;52.388;13.390;2023-08-30T13:20:16;6.84;;;2.85;;
56680;SDS011;42558;52.388;13.390;2023-08-30T13:22:46;5.89;;;3.04;;
56680;SDS011;42558;52.388;13.390;2023-08-30T13:25:16;7.41;;;2.85;;
56680;SDS011;42558;52.388;13.390;2023-08-30T13:27:47;6.84;;;2.85;;
56680;SDS011;42558;52.388;13.390;2023-08-30T13:30:18;6.46;;;2.85;;
56680;SDS011;42558;52.388;13.390;2023-08-30T13:32:48;11.02;;;3.04;;
56680;SDS011;42558;52.388;13.390;2023-08-30T13:35:18;7.60;;;3.04;;
56680;SDS011;42558;52.388;13.390;2023-08-30T13:37:47;6.27;;;3.04;;
56680;SDS011;42558;52.388;13.390;2023-08-30T13:40:17;6.84;;;3.04;;
56680;SDS011;42558;52.388;13.390;2023-08-30T13:42:47;5.51;;;2.66;;
56680;SDS011;42558;52.388;13.390;2023-08-30T13:45:16;7.22;;;3.42;;
56680;SDS011;42558;52.388;13.390;2023-08-30T13:47:44;6.08;;;2.85;;
56680;SDS011;42558;52.388;13.390;2023-08-30T13:50:16;7.98;;;3.04;;
56680;SDS011;42558;52.388;13.390;2023-08-30T13:52:44;6.27;;;3.04;;
56680;SDS011;42558;52.388;13.390;2023-08-30T13:55:12;7.41;;;3.99;;
56680;SDS011;42558;52.388;13.390;2023-08-30T13:57:41;7.98;;;3.23;;
56680;SDS011;42558;52.388;13.390;2023-08-30T14:00:10;7.60;;;3.42;;
56680;SDS011;42558;52.388;13.390;2023-08-30T14:02:42;6.27;;;2.85;;
56680;SDS011;42558;52.388;13.390;2023-08-30T14:05:12;6.84;;;3.42;;
56680;SDS011;42558;52.388;13.390;2023-08-30T14:07:40;6.65;;;3.23;;
56680;SDS011;42558;52.388;13.390;2023-08-30T14:10:09;7.79;;;3.42;;
56680;SDS011;42558;52.388;13.390;2023-08-30T14:12:40;6.84;;;3.04;;
56680;SDS011;42558;52.388;13.390;2023-08-30T14:15:09;7.41;;;3.04;;
56680;SDS011;42558;52.388;13.390;2023-08-30T14:17:37;7.79;;;3.42;;
56680;SDS011;42558;52.388;13.390;2023-08-30T14:20:07;7.22;;;3.80;;
56680;SDS011;42558;52.388;13.390;2023-08-30T14:22:40;7.60;;;3.42;;
56680;SDS011;42558;52.388;13.390;2023-08-30T14:25:10;6.27;;;3.42;;
56680;SDS011;42558;52.388;13.390;2023-08-30T14:27:41;8.17;;;3.61;;
56680;SDS011;42558;52.388;13.390;2023-08-30T14:30:11;7.60;;;2.85;;
56680;SDS011;42558;52.388;13.390;2023-08-30T14:32:42;6.65;;;3.23;;
56680;SDS011;42558;52.388;13.390;2023-08-30T14:35:12;6.65;;;3.42;;
56680;SDS011;42558;52.388;13.390;2023-08-30T14:37:42;9.31;;;3.80;;
56680;SDS011;42558;52.388;13.390;2023-08-30T14:40:13;8.55;;;3.23;;
56680;SDS011;42558;52.388;13.390;2023-08-30T14:42:43;6.84;;;2.85;;
56680;SDS011;42558;52.388;13.390;2023-08-30T14:45:13;7.03;;;3.04;;
56680;SDS011;42558;52.388;13.390;2023-08-30T14:47:43;6.84;;;3.23;;
56680;SDS011;42558;52.388;13.390;2023-08-30T14:50:13;7.22;;;3.42;;
56680;SDS011;42558;52.388;13.390;2023-08-30T14:52:43;9.50;;;3.42;;
56680;SDS011;42558;52.388;13.390;2023-08-30T14:55:13;6.65;;;3.23;;
56680;SDS011;42558;52.388;13.390;2023-08-30T14:57:43;8.93;;;3.42;;
56680;SDS011;42558;52.388;13.390;2023-08-30T15:00:13;7.60;;;3.23;;
56680;SDS011;42558;52.388;13.390;2023-08-30T15:02:44;6.08;;;3.23;;